sensor_id;sensor_type;location;lat;lon;timestamp;pressure;altitude;pressure_sealevel;temperature;humidity
80149;BME280;69473;42.426;26.644;2024-02-04T00:00:47;99335.38;;;2.08;68.17
80149;BME280;69473;42.426;26.644;2024-02-04T00:03:13;99335.81;;;2.21;67.89
80149;BME280;69473;42.426;26.644;2024-02-04T00:05:38;99338.75;;;2.07;68.73
80149;BME280;69473;42.426;26.644;2024-02-04T00:08:04;99335.81;;;2.21;68.62
80149;BME280;69473;42.426;26.644;2024-02-04T00:10:30;99346.28;;;2.27;68.28
80149;BME280;69473;42.426;26.644;2024-02-04T00:12:55;99335.59;;;2.15;68.58
80149;BME280;69473;42.426;26.644;2024-02-04T00:15:21;99338.66;;;2.04;68.86
80149;BME280;69473;42.426;26.644;2024-02-04T00:17:46;99338.66;;;2.04;68.58
80149;BME280;69473;42.426;26.644;2024-02-04T00:20:12;99333.72;;;1.87;68.78
80149;BME280;69473;42.426;26.644;2024-02-04T00:22:38;99339.25;;;1.97;69.21
80149;BME280;69473;42.426;26.644;2024-02-04T00:25:03;99339.50;;;2.05;68.73
80149;BME280;69473;42.426;26.644;2024-02-04T00:27:37;99335.16;;;2.02;68.60
80149;BME280;69473;42.426;26.644;2024-02-04T00:30:03;99338.75;;;2.07;69.02
80149;BME280;69473;42.426;26.644;2024-02-04T00:32:29;99339.09;;;2.17;68.28
80149;BME280;69473;42.426;26.644;2024-02-04T00:34:55;99337.03;;;2.06;68.55
80149;BME280;69473;42.426;26.644;2024-02-04T00:37:20;99339.84;;;1.90;68.68
80149;BME280;69473;42.426;26.644;2024-02-04T00:39:46;99345.81;;;1.91;69.69
80149;BME280;69473;42.426;26.644;2024-02-04T00:42:12;99349.09;;;2.11;69.12
80149;BME280;69473;42.426;26.644;2024-02-04T00:44:37;99342.69;;;2.22;69.03
80149;BME280;69473;42.426;26.644;2024-02-04T00:47:03;99344.09;;;2.14;68.26
80149;BME280;69473;42.426;26.644;2024-02-04T00:49:29;99343.03;;;2.08;69.37
80149;BME280;69473;42.426;26.644;2024-02-04T00:51:54;99351.16;;;1.97;68.94
80149;BME280;69473;42.426;26.644;2024-02-04T00:54:20;99343.19;;;1.89;69.27
80149;BME280;69473;42.426;26.644;2024-02-04T00:56:46;99348.75;;;2.01;69.69
80149;BME280;69473;42.426;26.644;2024-02-04T00:59:11;99353.13;;;2.04;69.19
80149;BME280;69473;42.426;26.644;2024-02-04T01:01:39;99356.69;;;1.85;69.94
80149;BME280;69473;42.426;26.644;2024-02-04T01:04:05;99344.38;;;1.75;70.12
80149;BME280;69473;42.426;26.644;2024-02-04T01:06:31;99342.63;;;1.74;70.46
80149;BME280;69473;42.426;26.644;2024-02-04T01:08:56;99335.66;;;1.70;70.54
80149;BME280;69473;42.426;26.644;2024-02-04T01:11:23;99335.53;;;1.67;70.39
80149;BME280;69473;42.426;26.644;2024-02-04T01:13:48;99327.16;;;1.71;71.42
80149;BME280;69473;42.426;26.644;2024-02-04T01:16:14;99327.97;;;1.92;70.89
80149;BME280;69473;42.426;26.644;2024-02-04T01:18:40;99319.63;;;1.96;69.96
80149;BME280;69473;42.426;26.644;2024-02-04T01:21:05;99316.13;;;1.94;69.80
80149;BME280;69473;42.426;26.644;2024-02-04T01:23:31;99320.69;;;1.79;70.25
80149;BME280;69473;42.426;26.644;2024-02-04T01:25:56;99313.53;;;1.70;70.38
80149;BME280;69473;42.426;26.644;2024-02-04T01:28:22;99318.72;;;1.72;70.99
80149;BME280;69473;42.426;26.644;2024-02-04T01:30:47;99325.78;;;1.79;70.87
80149;BME280;69473;42.426;26.644;2024-02-04T01:33:13;99318.94;;;1.78;70.27
80149;BME280;69473;42.426;26.644;2024-02-04T01:35:39;99300.53;;;1.64;71.22
80149;BME280;69473;42.426;26.644;2024-02-04T01:38:04;99302.94;;;1.59;71.58
80149;BME280;69473;42.426;26.644;2024-02-04T01:40:30;99304.53;;;1.57;71.14
80149;BME280;69473;42.426;26.644;2024-02-04T01:42:55;99304.94;;;1.46;71.49
80149;BME280;69473;42.426;26.644;2024-02-04T01:45:21;99298.72;;;1.39;71.54
80149;BME280;69473;42.426;26.644;2024-02-04T01:47:48;99294.09;;;1.51;72.04
80149;BME280;69473;42.426;26.644;2024-02-04T01:50:15;99300.94;;;1.52;71.29
80149;BME280;69473;42.426;26.644;2024-02-04T01:52:43;99294.13;;;1.30;72.61
80149;BME280;69473;42.426;26.644;2024-02-04T01:55:11;99298.63;;;1.36;71.89
80149;BME280;69473;42.426;26.644;2024-02-04T01:57:37;99285.25;;;1.43;71.28
80149;BME280;69473;42.426;26.644;2024-02-04T02:00:03;99283.66;;;1.45;71.63
80149;BME280;69473;42.426;26.644;2024-02-04T02:02:38;99281.31;;;1.51;71.63
80149;BME280;69473;42.426;26.644;2024-02-04T02:05:04;99279.00;;;1.57;72.17
80149;BME280;69473;42.426;26.644;2024-02-04T02:07:30;99273.44;;;1.45;72.20
80149;BME280;69473;42.426;26.644;2024-02-04T02:09:56;99280.16;;;1.43;72.60
80149;BME280;69473;42.426;26.644;2024-02-04T02:12:26;99270.28;;;1.52;72.11
80149;BME280;69473;42.426;26.644;2024-02-04T02:15:07;99274.00;;;1.60;72.32
80149;BME280;69473;42.426;26.644;2024-02-04T02:17:47;99273.06;;;1.58;72.35
80149;BME280;69473;42.426;26.644;2024-02-04T02:23:12;99276.41;;;1.80;72.13
80149;BME280;69473;42.426;26.644;2024-02-04T02:25:40;99279.22;;;1.64;71.72
80149;BME280;69473;42.426;26.644;2024-02-04T02:28:07;99270.16;;;1.27;72.91
80149;BME280;69473;42.426;26.644;2024-02-04T02:30:32;99278.19;;;1.36;73.24
80149;BME280;69473;42.426;26.644;2024-02-04T02:32:59;99276.34;;;1.32;73.12
80149;BME280;69473;42.426;26.644;2024-02-04T02:35:26;99278.19;;;1.36;73.74
80149;BME280;69473;42.426;26.644;2024-02-04T02:40:53;99286.38;;;1.50;74.04
80149;BME280;69473;42.426;26.644;2024-02-04T02:43:21;99277.16;;;1.53;73.40
80149;BME280;69473;42.426;26.644;2024-02-04T02:45:47;99277.16;;;1.53;73.44
80149;BME280;69473;42.426;26.644;2024-02-04T02:48:13;99275.84;;;1.65;73.71
80149;BME280;69473;42.426;26.644;2024-02-04T02:50:39;99282.50;;;1.59;73.36
80149;BME280;69473;42.426;26.644;2024-02-04T02:53:05;99276.91;;;1.70;73.96
80149;BME280;69473;42.426;26.644;2024-02-04T02:55:30;99272.97;;;1.78;73.39
80149;BME280;69473;42.426;26.644;2024-02-04T02:57:56;99266.31;;;1.83;73.59
80149;BME280;69473;42.426;26.644;2024-02-04T03:00:22;99263.28;;;1.93;73.58
80149;BME280;69473;42.426;26.644;2024-02-04T03:02:47;99259.16;;;1.97;73.48
80149;BME280;69473;42.426;26.644;2024-02-04T03:05:15;99261.03;;;2.02;72.92
80149;BME280;69473;42.426;26.644;2024-02-04T03:07:41;99268.69;;;2.02;72.92
80149;BME280;69473;42.426;26.644;2024-02-04T03:10:07;99263.69;;;2.05;73.24
80149;BME280;69473;42.426;26.644;2024-02-04T03:12:33;99251.97;;;2.11;72.21
80149;BME280;69473;42.426;26.644;2024-02-04T03:14:59;99247.38;;;2.02;73.21
80149;BME280;69473;42.426;26.644;2024-02-04T03:17:24;99253.94;;;1.94;73.00
80149;BME280;69473;42.426;26.644;2024-02-04T03:19:50;99254.56;;;1.88;73.83
80149;BME280;69473;42.426;26.644;2024-02-04T03:22:20;99248.59;;;1.88;73.62
80149;BME280;69473;42.426;26.644;2024-02-04T03:24:47;99250.66;;;1.74;73.72
80149;BME280;69473;42.426;26.644;2024-02-04T03:27:13;99252.53;;;1.78;73.70
80149;BME280;69473;42.426;26.644;2024-02-04T03:29:39;99260.75;;;1.71;74.08
80149;BME280;69473;42.426;26.644;2024-02-04T03:32:05;99255.88;;;1.77;74.31
80149;BME280;69473;42.426;26.644;2024-02-04T03:34:30;99253.72;;;1.88;73.60
80149;BME280;69473;42.426;26.644;2024-02-04T03:36:59;99258.72;;;1.84;74.12
80149;BME280;69473;42.426;26.644;2024-02-04T03:39:24;99265.97;;;1.74;73.95
80149;BME280;69473;42.426;26.644;2024-02-04T03:41:50;99258.19;;;1.47;73.87
80149;BME280;69473;42.426;26.644;2024-02-04T03:44:16;99258.84;;;1.43;74.54
80149;BME280;69473;42.426;26.644;2024-02-04T03:46:41;99259.28;;;1.31;74.38
80149;BME280;69473;42.426;26.644;2024-02-04T03:49:08;99259.06;;;1.25;74.81
80149;BME280;69473;42.426;26.644;2024-02-04T03:51:33;99264.66;;;1.16;75.37
80149;BME280;69473;42.426;26.644;2024-02-04T03:53:59;99262.03;;;1.14;75.52
80149;BME280;69473;42.426;26.644;2024-02-04T03:56:24;99272.38;;;1.18;74.84
80149;BME280;69473;42.426;26.644;2024-02-04T03:58:50;99267.16;;;1.14;74.89
80149;BME280;69473;42.426;26.644;2024-02-04T04:01:16;99260.31;;;1.13;74.68
80149;BME280;69473;42.426;26.644;2024-02-04T04:03:42;99265.66;;;1.20;74.81
80149;BME280;69473;42.426;26.644;2024-02-04T04:06:09;99258.94;;;1.22;75.01
80149;BME280;69473;42.426;26.644;2024-02-04T04:08:36;99260.66;;;1.23;75.19
80149;BME280;69473;42.426;26.644;2024-02-04T04:11:02;99253.13;;;1.26;74.81
80149;BME280;69473;42.426;26.644;2024-02-04T04:13:27;99248.00;;;1.48;75.39
80149;BME280;69473;42.426;26.644;2024-02-04T04:15:53;99245.41;;;1.71;75.44
80149;BME280;69473;42.426;26.644;2024-02-04T04:18:19;99258.34;;;1.51;75.29
80149;BME280;69473;42.426;26.644;2024-02-04T04:20:44;99253.47;;;1.57;75.32
80149;BME280;69473;42.426;26.644;2024-02-04T04:23:10;99242.38;;;1.57;75.00
80149;BME280;69473;42.426;26.644;2024-02-04T04:25:35;99241.28;;;1.50;76.22
80149;BME280;69473;42.426;26.644;2024-02-04T04:28:01;99250.91;;;1.57;75.37
80149;BME280;69473;42.426;26.644;2024-02-04T04:30:27;99257.63;;;1.55;75.42
80149;BME280;69473;42.426;26.644;2024-02-04T04:32:52;99242.19;;;1.52;75.43
80149;BME280;69473;42.426;26.644;2024-02-04T04:35:18;99240.81;;;1.60;76.25
80149;BME280;69473;42.426;26.644;2024-02-04T04:37:43;99237.44;;;1.61;76.72
80149;BME280;69473;42.426;26.644;2024-02-04T04:40:09;99246.28;;;1.71;76.16
80149;BME280;69473;42.426;26.644;2024-02-04T04:42:35;99238.69;;;1.73;75.94
80149;BME280;69473;42.426;26.644;2024-02-04T04:45:00;99240.53;;;1.77;75.76
80149;BME280;69473;42.426;26.644;2024-02-04T04:47:26;99244.47;;;1.91;75.61
80149;BME280;69473;42.426;26.644;2024-02-04T04:49:52;99239.34;;;1.91;76.14
80149;BME280;69473;42.426;26.644;2024-02-04T04:52:17;99244.69;;;1.97;76.21
80149;BME280;69473;42.426;26.644;2024-02-04T04:54:43;99243.72;;;1.94;75.71
80149;BME280;69473;42.426;26.644;2024-02-04T04:57:08;99249.72;;;1.96;76.01
80149;BME280;69473;42.426;26.644;2024-02-04T04:59:34;99241.09;;;1.92;76.94
80149;BME280;69473;42.426;26.644;2024-02-04T05:02:01;99243.25;;;2.05;76.58
80149;BME280;69473;42.426;26.644;2024-02-04T05:04:27;99238.47;;;2.15;76.22
80149;BME280;69473;42.426;26.644;2024-02-04T05:06:53;99243.78;;;2.21;75.55
80149;BME280;69473;42.426;26.644;2024-02-04T05:09:18;99248.91;;;2.21;76.69
80149;BME280;69473;42.426;26.644;2024-02-04T05:11:44;99250.44;;;2.16;76.37
80149;BME280;69473;42.426;26.644;2024-02-04T05:14:10;99265.78;;;2.16;76.44
80149;BME280;69473;42.426;26.644;2024-02-04T05:16:35;99264.03;;;2.15;76.28
80149;BME280;69473;42.426;26.644;2024-02-04T05:19:02;99266.53;;;2.13;77.17
80149;BME280;69473;42.426;26.644;2024-02-04T05:21:28;99264.69;;;2.09;77.48
80149;BME280;69473;42.426;26.644;2024-02-04T05:23:54;99261.97;;;2.04;77.86
80149;BME280;69473;42.426;26.644;2024-02-04T05:26:19;99265.56;;;2.10;77.36
80149;BME280;69473;42.426;26.644;2024-02-04T05:28:45;99269.13;;;2.15;77.46
80149;BME280;69473;42.426;26.644;2024-02-04T05:31:10;99271.00;;;2.19;77.80
80149;BME280;69473;42.426;26.644;2024-02-04T05:33:36;99263.34;;;2.44;76.97
80149;BME280;69473;42.426;26.644;2024-02-04T05:36:01;99273.56;;;2.44;76.08
80149;BME280;69473;42.426;26.644;2024-02-04T05:38:27;99269.88;;;2.36;76.61
80149;BME280;69473;42.426;26.644;2024-02-04T05:40:53;99275.41;;;2.48;76.26
80149;BME280;69473;42.426;26.644;2024-02-04T05:43:18;99284.53;;;2.66;75.04
80149;BME280;69473;42.426;26.644;2024-02-04T05:45:44;99289.66;;;2.66;74.90
80149;BME280;69473;42.426;26.644;2024-02-04T05:48:10;99290.63;;;2.69;75.40
80149;BME280;69473;42.426;26.644;2024-02-04T05:50:36;99286.56;;;2.76;75.03
80149;BME280;69473;42.426;26.644;2024-02-04T05:53:02;99299.25;;;2.73;75.73
80149;BME280;69473;42.426;26.644;2024-02-04T05:55:29;99294.78;;;2.66;76.11
80149;BME280;69473;42.426;26.644;2024-02-04T05:57:54;99305.50;;;2.81;75.37
80149;BME280;69473;42.426;26.644;2024-02-04T06:00:20;99300.69;;;2.90;74.63
80149;BME280;69473;42.426;26.644;2024-02-04T06:02:46;99301.09;;;3.03;74.44
80149;BME280;69473;42.426;26.644;2024-02-04T06:05:12;99289.94;;;3.00;75.08
80149;BME280;69473;42.426;26.644;2024-02-04T06:07:38;99283.88;;;2.98;74.88
80149;BME280;69473;42.426;26.644;2024-02-04T06:10:04;99287.56;;;3.07;74.97
80149;BME280;69473;42.426;26.644;2024-02-04T06:12:30;99285.72;;;3.03;75.04
80149;BME280;69473;42.426;26.644;2024-02-04T06:14:56;99277.72;;;3.19;73.79
80149;BME280;69473;42.426;26.644;2024-02-04T06:17:22;99284.75;;;3.26;74.25
80149;BME280;69473;42.426;26.644;2024-02-04T06:19:48;99279.91;;;3.35;73.10
80149;BME280;69473;42.426;26.644;2024-02-04T06:22:14;99279.34;;;3.45;73.03
80149;BME280;69473;42.426;26.644;2024-02-04T06:24:40;99261.88;;;3.61;72.78
80149;BME280;69473;42.426;26.644;2024-02-04T06:27:07;99259.63;;;3.72;71.52
80149;BME280;69473;42.426;26.644;2024-02-04T06:29:33;99257.38;;;3.82;71.43
80149;BME280;69473;42.426;26.644;2024-02-04T06:31:59;99254.41;;;3.99;70.86
80149;BME280;69473;42.426;26.644;2024-02-04T06:34:25;99248.38;;;4.28;69.98
80149;BME280;69473;42.426;26.644;2024-02-04T06:36:50;99228.56;;;4.56;68.13
80149;BME280;69473;42.426;26.644;2024-02-04T06:39:16;99236.03;;;4.81;68.12
80149;BME280;69473;42.426;26.644;2024-02-04T06:41:42;99233.13;;;5.04;67.21
80149;BME280;69473;42.426;26.644;2024-02-04T06:44:07;99248.75;;;5.13;66.12
80149;BME280;69473;42.426;26.644;2024-02-04T06:46:33;99253.38;;;5.28;65.18
80149;BME280;69473;42.426;26.644;2024-02-04T06:48:59;99263.19;;;5.46;64.57
80149;BME280;69473;42.426;26.644;2024-02-04T06:51:24;99260.03;;;5.59;64.28
80149;BME280;69473;42.426;26.644;2024-02-04T06:53:50;99265.25;;;5.64;64.74
80149;BME280;69473;42.426;26.644;2024-02-04T06:56:15;99264.72;;;5.78;64.14
80149;BME280;69473;42.426;26.644;2024-02-04T06:58:42;99264.34;;;6.01;62.81
80149;BME280;69473;42.426;26.644;2024-02-04T07:01:08;99269.72;;;6.13;62.04
80149;BME280;69473;42.426;26.644;2024-02-04T07:03:34;99265.16;;;6.44;61.01
80149;BME280;69473;42.426;26.644;2024-02-04T07:06:00;99257.88;;;6.68;59.51
80149;BME280;69473;42.426;26.644;2024-02-04T07:08:26;99253.69;;;6.74;59.98
80149;BME280;69473;42.426;26.644;2024-02-04T07:10:52;99251.91;;;6.72;59.93
80149;BME280;69473;42.426;26.644;2024-02-04T07:13:18;99262.44;;;6.85;59.41
80149;BME280;69473;42.426;26.644;2024-02-04T07:15:44;99266.34;;;6.61;59.75
80149;BME280;69473;42.426;26.644;2024-02-04T07:18:10;99264.22;;;6.89;59.98
80149;BME280;69473;42.426;26.644;2024-02-04T07:20:37;99264.94;;;7.38;57.91
80149;BME280;69473;42.426;26.644;2024-02-04T07:23:03;99277.38;;;7.63;57.68
80149;BME280;69473;42.426;26.644;2024-02-04T07:25:29;99276.66;;;7.77;56.56
80149;BME280;69473;42.426;26.644;2024-02-04T07:27:55;99276.22;;;8.12;56.08
80149;BME280;69473;42.426;26.644;2024-02-04T07:30:21;99281.94;;;8.58;54.87
80149;BME280;69473;42.426;26.644;2024-02-04T07:32:47;99267.53;;;8.87;53.35
80149;BME280;69473;42.426;26.644;2024-02-04T07:35:12;99268.50;;;8.98;53.06
80149;BME280;69473;42.426;26.644;2024-02-04T07:37:38;99277.19;;;9.07;53.62
80149;BME280;69473;42.426;26.644;2024-02-04T07:40:04;99282.56;;;9.40;52.55
80149;BME280;69473;42.426;26.644;2024-02-04T07:42:33;99275.91;;;9.76;51.06
80149;BME280;69473;42.426;26.644;2024-02-04T07:44:59;99277.78;;;10.11;50.67
80149;BME280;69473;42.426;26.644;2024-02-04T07:47:25;99270.16;;;10.60;49.81
80149;BME280;69473;42.426;26.644;2024-02-04T07:49:51;99258.84;;;10.27;50.50
80149;BME280;69473;42.426;26.644;2024-02-04T07:52:16;99264.81;;;10.03;50.43
80149;BME280;69473;42.426;26.644;2024-02-04T07:54:42;99275.22;;;8.78;55.04
80149;BME280;69473;42.426;26.644;2024-02-04T07:57:12;99283.91;;;8.04;58.12
80149;BME280;69473;42.426;26.644;2024-02-04T07:59:37;99289.19;;;7.49;60.93
80149;BME280;69473;42.426;26.644;2024-02-04T08:02:03;99284.03;;;6.94;62.88
80149;BME280;69473;42.426;26.644;2024-02-04T08:04:29;99279.38;;;6.70;64.07
80149;BME280;69473;42.426;26.644;2024-02-04T08:06:54;99287.41;;;6.39;65.81
80149;BME280;69473;42.426;26.644;2024-02-04T08:09:20;99286.31;;;6.29;66.16
80149;BME280;69473;42.426;26.644;2024-02-04T08:11:46;99285.34;;;6.22;67.15
80149;BME280;69473;42.426;26.644;2024-02-04T08:14:12;99282.81;;;6.24;66.75
80149;BME280;69473;42.426;26.644;2024-02-04T08:16:40;99287.16;;;6.27;66.59
80149;BME280;69473;42.426;26.644;2024-02-04T08:19:06;99277.78;;;6.30;67.27
80149;BME280;69473;42.426;26.644;2024-02-04T08:21:32;99272.06;;;6.45;66.68
80149;BME280;69473;42.426;26.644;2024-02-04T08:23:58;99272.38;;;6.63;66.09
80149;BME280;69473;42.426;26.644;2024-02-04T08:26:24;99275.72;;;6.59;66.34
80149;BME280;69473;42.426;26.644;2024-02-04T08:28:50;99273.09;;;6.56;66.52
80149;BME280;69473;42.426;26.644;2024-02-04T08:31:16;99273.84;;;6.49;67.26
80149;BME280;69473;42.426;26.644;2024-02-04T08:33:42;99280.59;;;6.44;67.35
80149;BME280;69473;42.426;26.644;2024-02-04T08:36:07;99276.94;;;6.30;67.86
80149;BME280;69473;42.426;26.644;2024-02-04T08:38:36;99271.66;;;6.23;67.70
80149;BME280;69473;42.426;26.644;2024-02-04T08:41:03;99269.97;;;6.25;68.19
80149;BME280;69473;42.426;26.644;2024-02-04T08:43:29;99275.16;;;6.29;67.89
80149;BME280;69473;42.426;26.644;2024-02-04T08:45:55;99278.66;;;6.31;68.00
80149;BME280;69473;42.426;26.644;2024-02-04T08:48:20;99273.44;;;6.28;68.43
80149;BME280;69473;42.426;26.644;2024-02-04T08:50:46;99283.75;;;6.28;68.46
80149;BME280;69473;42.426;26.644;2024-02-04T08:53:12;99285.47;;;6.29;68.53
80149;BME280;69473;42.426;26.644;2024-02-04T08:55:37;99289.84;;;6.33;68.71
80149;BME280;69473;42.426;26.644;2024-02-04T08:58:03;99282.13;;;6.33;69.29
80149;BME280;69473;42.426;26.644;2024-02-04T09:00:29;99281.34;;;6.37;69.12
80149;BME280;69473;42.426;26.644;2024-02-04T09:02:54;99285.88;;;6.50;69.58
80149;BME280;69473;42.426;26.644;2024-02-04T09:05:21;99283.41;;;6.55;71.47
80149;BME280;69473;42.426;26.644;2024-02-04T09:07:46;99280.81;;;6.56;71.47
80149;BME280;69473;42.426;26.644;2024-02-04T09:10:12;99277.56;;;6.66;71.68
80149;BME280;69473;42.426;26.644;2024-02-04T09:12:38;99278.41;;;6.64;71.19
80149;BME280;69473;42.426;26.644;2024-02-04T09:15:04;99277.97;;;6.91;70.56
80149;BME280;69473;42.426;26.644;2024-02-04T09:17:30;99275.59;;;7.03;70.48
80149;BME280;69473;42.426;26.644;2024-02-04T09:19:58;99283.63;;;7.22;69.11
80149;BME280;69473;42.426;26.644;2024-02-04T09:22:24;99278.66;;;7.34;69.42
80149;BME280;69473;42.426;26.644;2024-02-04T09:24:50;99276.28;;;7.48;69.49
80149;BME280;69473;42.426;26.644;2024-02-04T09:27:16;99269.50;;;7.54;68.81
80149;BME280;69473;42.426;26.644;2024-02-04T09:29:41;99264.25;;;7.48;69.16
80149;BME280;69473;42.426;26.644;2024-02-04T09:32:07;99270.31;;;7.53;71.59
80149;BME280;69473;42.426;26.644;2024-02-04T09:34:33;99263.41;;;7.49;71.34
80149;BME280;69473;42.426;26.644;2024-02-04T09:36:59;99267.66;;;7.47;70.59
80149;BME280;69473;42.426;26.644;2024-02-04T09:39:24;99261.81;;;7.59;71.86
80149;BME280;69473;42.426;26.644;2024-02-04T09:41:50;99251.94;;;7.94;72.76
80149;BME280;69473;42.426;26.644;2024-02-04T09:44:17;99252.59;;;8.52;69.65
80149;BME280;69473;42.426;26.644;2024-02-04T09:46:43;99244.13;;;8.69;70.20
80149;BME280;69473;42.426;26.644;2024-02-04T09:49:09;99230.28;;;8.61;71.31
80149;BME280;69473;42.426;26.644;2024-02-04T09:51:35;99229.66;;;8.86;72.10
80149;BME280;69473;42.426;26.644;2024-02-04T09:54:04;99213.91;;;10.17;65.33
80149;BME280;69473;42.426;26.644;2024-02-04T09:56:34;99204.06;;;13.33;54.56
80149;BME280;69473;42.426;26.644;2024-02-04T09:59:01;99193.00;;;13.88;51.70
80149;BME280;69473;42.426;26.644;2024-02-04T10:01:27;99184.53;;;14.34;50.96
80149;BME280;69473;42.426;26.644;2024-02-04T10:03:53;99172.00;;;14.00;50.61
80149;BME280;69473;42.426;26.644;2024-02-04T10:06:19;99172.66;;;13.48;51.09
80149;BME280;69473;42.426;26.644;2024-02-04T10:08:45;99181.97;;;12.83;53.39
80149;BME280;69473;42.426;26.644;2024-02-04T10:11:11;99180.66;;;12.30;55.11
80149;BME280;69473;42.426;26.644;2024-02-04T10:13:48;99179.19;;;11.73;56.85
80149;BME280;69473;42.426;26.644;2024-02-04T10:16:14;99175.03;;;11.43;56.99
80149;BME280;69473;42.426;26.644;2024-02-04T10:18:44;99172.50;;;11.05;57.43
80149;BME280;69473;42.426;26.644;2024-02-04T10:21:19;99184.63;;;10.83;58.89
80149;BME280;69473;42.426;26.644;2024-02-04T10:23:49;99187.22;;;10.58;59.55
80149;BME280;69473;42.426;26.644;2024-02-04T10:26:15;99188.09;;;10.28;59.45
80149;BME280;69473;42.426;26.644;2024-02-04T10:28:44;99188.00;;;10.07;60.78
80149;BME280;69473;42.426;26.644;2024-02-04T10:31:10;99184.53;;;10.02;60.12
80149;BME280;69473;42.426;26.644;2024-02-04T10:33:37;99189.75;;;10.11;59.72
80149;BME280;69473;42.426;26.644;2024-02-04T10:36:04;99184.56;;;10.14;60.39
80149;BME280;69473;42.426;26.644;2024-02-04T10:38:30;99188.00;;;10.14;59.78
80149;BME280;69473;42.426;26.644;2024-02-04T10:41:00;99182.88;;;10.22;60.26
80149;BME280;69473;42.426;26.644;2024-02-04T10:43:33;99182.81;;;10.01;60.23
80149;BME280;69473;42.426;26.644;2024-02-04T10:46:26;99191.41;;;9.89;61.05
80149;BME280;69473;42.426;26.644;2024-02-04T10:49:00;99192.22;;;9.76;61.57
80149;BME280;69473;42.426;26.644;2024-02-04T10:51:26;99210.28;;;9.65;62.85
80149;BME280;69473;42.426;26.644;2024-02-04T10:53:55;99205.03;;;9.49;63.93
80149;BME280;69473;42.426;26.644;2024-02-04T10:56:26;99195.53;;;9.38;62.36
80149;BME280;69473;42.426;26.644;2024-02-04T10:58:55;99203.25;;;9.36;63.69
80149;BME280;69473;42.426;26.644;2024-02-04T11:01:24;99201.59;;;9.44;63.37
80149;BME280;69473;42.426;26.644;2024-02-04T11:03:53;99192.13;;;9.51;62.85
80149;BME280;69473;42.426;26.644;2024-02-04T11:06:20;99182.63;;;9.48;61.99
80149;BME280;69473;42.426;26.644;2024-02-04T11:08:47;99197.25;;;9.46;62.95
80149;BME280;69473;42.426;26.644;2024-02-04T11:11:13;99186.97;;;9.51;62.09
80149;BME280;69473;42.426;26.644;2024-02-04T11:13:43;99181.78;;;9.56;63.43
80149;BME280;69473;42.426;26.644;2024-02-04T11:26:34;99174.88;;;9.52;61.92
80149;BME280;69473;42.426;26.644;2024-02-04T11:29:00;99172.28;;;9.45;62.52
80149;BME280;69473;42.426;26.644;2024-02-04T11:31:29;99166.25;;;9.45;62.14
80149;BME280;69473;42.426;26.644;2024-02-04T11:33:56;99166.22;;;9.39;62.21
80149;BME280;69473;42.426;26.644;2024-02-04T11:36:25;99168.75;;;9.34;62.57
80149;BME280;69473;42.426;26.644;2024-02-04T11:38:51;99163.56;;;9.28;62.44
80149;BME280;69473;42.426;26.644;2024-02-04T11:41:24;99158.38;;;9.25;63.34
80149;BME280;69473;42.426;26.644;2024-02-04T11:43:55;99163.53;;;9.22;63.27
80149;BME280;69473;42.426;26.644;2024-02-04T11:46:21;99163.53;;;9.16;62.58
80149;BME280;69473;42.426;26.644;2024-02-04T11:48:53;99158.28;;;9.07;63.23
80149;BME280;69473;42.426;26.644;2024-02-04T11:51:22;99156.56;;;9.12;64.05
80149;BME280;69473;42.426;26.644;2024-02-04T11:53:50;99153.19;;;9.25;63.35
80149;BME280;69473;42.426;26.644;2024-02-04T11:56:17;99153.25;;;9.34;63.28
80149;BME280;69473;42.426;26.644;2024-02-04T11:58:44;99151.56;;;9.39;63.13
80149;BME280;69473;42.426;26.644;2024-02-04T12:01:10;99149.84;;;9.41;62.55
80149;BME280;69473;42.426;26.644;2024-02-04T12:03:39;99147.25;;;9.41;62.58
80149;BME280;69473;42.426;26.644;2024-02-04T12:06:05;99141.22;;;9.45;62.81
80149;BME280;69473;42.426;26.644;2024-02-04T12:08:34;99142.97;;;9.53;62.12
80149;BME280;69473;42.426;26.644;2024-02-04T12:11:01;99141.28;;;9.61;62.80
80149;BME280;69473;42.426;26.644;2024-02-04T12:13:28;99131.81;;;9.67;61.16
80149;BME280;69473;42.426;26.644;2024-02-04T12:15:54;99137.84;;;9.65;61.84
80149;BME280;69473;42.426;26.644;2024-02-04T12:18:20;99134.41;;;9.63;61.86
80149;BME280;69473;42.426;26.644;2024-02-04T12:20:47;99133.50;;;9.55;61.69
80149;BME280;69473;42.426;26.644;2024-02-04T12:23:16;99135.25;;;9.62;60.47
80149;BME280;69473;42.426;26.644;2024-02-04T12:25:42;99127.47;;;9.53;62.60
80149;BME280;69473;42.426;26.644;2024-02-04T12:28:08;99124.84;;;9.45;63.20
80149;BME280;69473;42.426;26.644;2024-02-04T12:30:34;99124.84;;;9.39;63.18
80149;BME280;69473;42.426;26.644;2024-02-04T12:33:01;99131.72;;;9.35;63.86
80149;BME280;69473;42.426;26.644;2024-02-04T12:35:28;99132.56;;;9.34;62.54
80149;BME280;69473;42.426;26.644;2024-02-04T12:37:58;99130.81;;;9.30;63.02
80149;BME280;69473;42.426;26.644;2024-02-04T12:40:33;99132.50;;;9.25;63.22
80149;BME280;69473;42.426;26.644;2024-02-04T12:43:00;99134.25;;;9.26;64.20
80149;BME280;69473;42.426;26.644;2024-02-04T12:45:30;99130.78;;;9.21;64.66
80149;BME280;69473;42.426;26.644;2024-02-04T12:47:57;99128.19;;;9.19;64.14
80149;BME280;69473;42.426;26.644;2024-02-04T12:50:24;99122.16;;;9.16;63.54
80149;BME280;69473;42.426;26.644;2024-02-04T12:53:03;99118.63;;;9.05;62.43
80149;BME280;69473;42.426;26.644;2024-02-04T12:55:31;99118.59;;;8.95;63.47
80149;BME280;69473;42.426;26.644;2024-02-04T13:00:32;99120.31;;;8.96;63.76
80149;BME280;69473;42.426;26.644;2024-02-04T13:02:58;99125.50;;;8.99;65.12
80149;BME280;69473;42.426;26.644;2024-02-04T13:05:25;99122.91;;;8.98;63.99
80149;BME280;69473;42.426;26.644;2024-02-04T13:07:56;99137.63;;;9.07;63.49
80149;BME280;69473;42.426;26.644;2024-02-04T13:10:25;99144.53;;;9.11;63.20
80149;BME280;69473;42.426;26.644;2024-02-04T13:13:02;99134.16;;;9.08;63.42
80149;BME280;69473;42.426;26.644;2024-02-04T13:15:30;99147.13;;;9.17;63.76